createdAt,value
2018-11-26T00:00:35.982Z,91.40
2018-11-26T00:03:10.112Z,92.95
2018-11-26T00:05:42.747Z,83.27
2018-11-26T00:08:21.483Z,83.10
2018-11-26T00:12:00.322Z,82.30
2018-11-26T00:14:32.889Z,78.10
2018-11-26T00:17:05.531Z,77.12
2018-11-26T00:19:38.148Z,77.22
2018-11-26T00:22:10.781Z,93.55
2018-11-26T00:24:43.384Z,82.55
2018-11-26T00:27:16.080Z,94.55
2018-11-26T00:29:48.670Z,80.70
2018-11-26T00:32:21.268Z,96.78
2018-11-26T00:34:53.862Z,74.35
2018-11-26T00:37:26.479Z,70.42
2018-11-26T00:39:59.250Z,85.62
2018-11-26T00:42:31.881Z,75.52
2018-11-26T00:45:05.090Z,79.45
2018-11-26T00:47:37.685Z,93.25
2018-11-26T00:50:10.470Z,75.67
2018-11-26T00:52:43.055Z,82.75
2018-11-26T00:55:15.724Z,84.05
2018-11-26T00:57:48.516Z,82.55
2018-11-26T01:00:21.184Z,80.90
2018-11-26T01:02:53.827Z,72.08
2018-11-26T01:05:35.365Z,72.00
2018-11-26T01:08:08.097Z,77.40
2018-11-26T01:10:40.739Z,71.80
2018-11-26T01:13:13.337Z,70.25
2018-11-26T01:15:46.716Z,83.70
2018-11-26T01:18:19.284Z,78.72
2018-11-26T01:20:51.851Z,80.87
2018-11-26T01:23:24.454Z,76.45
2018-11-26T01:25:57.107Z,73.92
2018-11-26T01:28:29.668Z,79.32
2018-11-26T01:31:02.293Z,77.75
2018-11-26T01:33:34.993Z,82.70
2018-11-26T01:36:07.626Z,98.78
2018-11-26T01:38:40.238Z,89.52
2018-11-26T01:41:12.883Z,83.97
2018-11-26T01:43:45.545Z,87.55
2018-11-26T01:46:18.161Z,76.87
2018-11-26T01:48:51.332Z,86.17
2018-11-26T01:51:23.926Z,86.40
2018-11-26T01:53:56.516Z,91.75
2018-11-26T01:56:29.131Z,103.53
2018-11-26T01:59:01.691Z,96.78
2018-11-26T02:01:34.316Z,85.32
2018-11-26T02:04:06.872Z,84.52
2018-11-26T02:06:39.481Z,77.87
2018-11-26T02:09:12.043Z,97.92
2018-11-26T02:11:44.671Z,82.42
2018-11-26T02:14:17.273Z,93.37
2018-11-26T02:16:50.043Z,87.00
2018-11-26T02:19:22.654Z,90.85
2018-11-26T02:21:55.353Z,79.05
2018-11-26T02:24:27.891Z,87.85
2018-11-26T02:27:00.474Z,79.15
2018-11-26T02:29:33.099Z,82.30
2018-11-26T02:32:05.785Z,90.75
2018-11-26T02:34:38.322Z,89.20
2018-11-26T02:37:10.981Z,104.85
2018-11-26T02:39:43.540Z,114.20
2018-11-26T02:42:16.180Z,104.58
2018-11-26T02:44:48.754Z,96.20
2018-11-26T02:47:21.310Z,79.27
2018-11-26T02:49:53.956Z,91.42
2018-11-26T02:52:26.559Z,96.25
2018-11-26T02:54:59.150Z,94.80
2018-11-26T02:57:31.713Z,91.10
2018-11-26T03:00:06.230Z,85.42
2018-11-26T03:02:38.856Z,83.95
2018-11-26T03:05:12.386Z,97.85
2018-11-26T03:07:45.107Z,86.35
2018-11-26T03:10:17.707Z,97.10
2018-11-26T03:12:50.353Z,84.90
2018-11-26T03:15:22.993Z,78.78
2018-11-26T03:17:55.583Z,103.78
2018-11-26T03:20:28.149Z,75.17
2018-11-26T03:23:00.690Z,74.07
2018-11-26T03:25:33.338Z,80.62
2018-11-26T03:28:06.977Z,82.17
2018-11-26T03:30:39.539Z,73.47
2018-11-26T03:33:12.136Z,86.65
2018-11-26T03:35:44.730Z,90.35
2018-11-26T03:38:27.342Z,73.30
2018-11-26T03:40:59.879Z,87.00
2018-11-26T03:43:32.456Z,85.60
2018-11-26T03:46:05.188Z,74.67
2018-11-26T03:48:37.827Z,77.67
2018-11-26T03:51:10.435Z,77.97
2018-11-26T03:53:43.055Z,76.75
2018-11-26T03:56:15.674Z,70.57
2018-11-26T03:58:48.286Z,74.82
2018-11-26T04:01:20.795Z,81.40
2018-11-26T04:03:53.382Z,81.75
2018-11-26T04:06:25.997Z,76.42
2018-11-26T04:08:58.552Z,82.65
2018-11-26T04:11:31.173Z,83.52
2018-11-26T04:14:03.819Z,77.27
2018-11-26T04:16:36.438Z,86.12
2018-11-26T04:19:09.008Z,83.05
2018-11-26T04:21:41.565Z,82.22
2018-11-26T04:24:14.139Z,83.37
2018-11-26T04:26:46.777Z,77.53
2018-11-26T04:29:19.411Z,93.30
2018-11-26T04:31:52.015Z,85.62
2018-11-26T04:34:24.690Z,86.40
2018-11-26T04:36:57.391Z,78.62
2018-11-26T04:39:30.027Z,86.47
2018-11-26T04:42:02.566Z,77.15
2018-11-26T04:44:35.210Z,80.97
2018-11-26T04:47:07.880Z,77.17
2018-11-26T04:49:40.509Z,80.38
2018-11-26T04:52:13.106Z,80.67
2018-11-26T04:54:45.715Z,74.50
2018-11-26T04:57:18.365Z,74.92
2018-11-26T04:59:50.950Z,76.53
2018-11-26T05:02:24.217Z,70.67
2018-11-26T05:04:56.765Z,76.35
2018-11-26T05:07:29.432Z,75.67
2018-11-26T05:10:02.118Z,73.12
2018-11-26T05:12:34.732Z,70.60
2018-11-26T05:15:10.726Z,88.52
2018-11-26T05:17:43.304Z,81.35
2018-11-26T05:20:15.888Z,76.62
2018-11-26T05:22:48.504Z,70.75
2018-11-26T05:25:21.068Z,77.85
2018-11-26T05:27:54.404Z,87.57
2018-11-26T05:30:27.007Z,81.25
2018-11-26T05:32:59.575Z,77.95
2018-11-26T05:35:32.145Z,78.72
2018-11-26T05:38:04.979Z,77.25
2018-11-26T05:40:37.742Z,89.30
2018-11-26T05:43:10.340Z,82.80
2018-11-26T05:45:42.885Z,85.30
2018-11-26T05:48:15.583Z,77.90
2018-11-26T05:50:48.149Z,88.00
2018-11-26T05:53:20.707Z,86.65
2018-11-26T05:55:53.341Z,99.22
2018-11-26T05:58:26.007Z,101.22
2018-11-26T06:00:58.615Z,83.87
2018-11-26T06:03:31.243Z,95.17
2018-11-26T06:06:04.133Z,92.45
2018-11-26T06:08:36.798Z,96.63
2018-11-26T06:11:09.386Z,85.70
2018-11-26T06:13:41.927Z,105.07
2018-11-26T06:16:14.617Z,91.32
2018-11-26T06:18:47.208Z,86.25
2018-11-26T06:21:19.826Z,112.75
2018-11-26T06:23:52.500Z,102.75
2018-11-26T06:26:25.115Z,110.20
2018-11-26T06:28:57.808Z,111.83
2018-11-26T06:31:30.454Z,113.25
2018-11-26T06:34:03.074Z,131.25
2018-11-26T06:36:35.705Z,140.52
2018-11-26T06:39:10.571Z,144.30
2018-11-26T06:41:43.136Z,138.40
2018-11-26T06:44:15.742Z,129.70
2018-11-26T06:46:48.341Z,135.30
2018-11-26T06:49:20.916Z,157.43
2018-11-26T06:51:53.469Z,165.97
2018-11-26T06:54:26.162Z,188.62
2018-11-26T06:56:58.736Z,168.45
2018-11-26T06:59:31.345Z,182.30
2018-11-26T07:02:03.976Z,163.77
2018-11-26T07:04:36.660Z,140.85
2018-11-26T07:07:09.274Z,154.68
2018-11-26T07:09:41.867Z,134.70
2018-11-26T07:12:14.498Z,145.30
2018-11-26T07:14:47.118Z,137.30
2018-11-26T07:17:19.823Z,147.37
2018-11-26T07:19:52.428Z,141.28
2018-11-26T07:22:25.048Z,130.30
2018-11-26T07:24:57.615Z,125.58
2018-11-26T07:27:30.173Z,126.55
2018-11-26T07:30:02.843Z,125.92
2018-11-26T07:32:35.504Z,114.80
2018-11-26T07:35:08.735Z,119.95
2018-11-26T07:37:41.515Z,102.80
2018-11-26T07:40:17.300Z,114.00
2018-11-26T07:43:00.417Z,96.50
2018-11-26T07:45:33.025Z,99.77
2018-11-26T07:48:07.027Z,89.20
2018-11-26T07:50:39.712Z,99.15
2018-11-26T07:53:12.316Z,91.80
2018-11-26T07:55:44.917Z,99.87
2018-11-26T07:58:17.613Z,91.85
2018-11-26T08:00:50.216Z,94.95
2018-11-26T08:03:22.866Z,89.03
2018-11-26T08:05:55.487Z,80.77
2018-11-26T08:08:28.188Z,82.60
2018-11-26T08:11:00.758Z,83.22
2018-11-26T08:13:33.379Z,80.45
2018-11-26T08:16:06.142Z,79.62
2018-11-26T08:18:38.793Z,71.70
2018-11-26T08:21:11.400Z,72.75
2018-11-26T08:23:44.043Z,61.48
2018-11-26T08:26:16.694Z,68.50
2018-11-26T08:28:49.330Z,55.58
2018-11-26T08:31:21.895Z,68.17
2018-11-26T08:33:54.530Z,61.37
2018-11-26T08:36:32.667Z,61.68
2018-11-26T08:39:13.816Z,54.67
2018-11-26T08:41:52.965Z,58.17
2018-11-26T08:45:32.847Z,49.55
2018-11-26T08:48:11.609Z,49.65
2018-11-26T08:50:44.652Z,50.43
2018-11-26T08:53:17.298Z,58.50
2018-11-26T08:55:49.912Z,58.00
2018-11-26T08:58:22.611Z,64.67
2018-11-26T09:01:00.942Z,67.37
2018-11-26T09:03:39.197Z,52.30
2018-11-26T09:06:11.745Z,59.00
2018-11-26T09:08:44.408Z,60.40
2018-11-26T09:11:17.009Z,69.42
2018-11-26T09:13:49.588Z,60.23
2018-11-26T09:16:22.163Z,65.90
2018-11-26T09:18:54.826Z,60.05
2018-11-26T09:21:27.465Z,57.08
2018-11-26T09:24:00.084Z,72.25
2018-11-26T09:26:32.656Z,68.57
2018-11-26T09:29:05.656Z,59.83
2018-11-26T09:31:38.344Z,77.15
2018-11-26T09:34:10.999Z,71.70
2018-11-26T09:36:43.559Z,74.12
2018-11-26T09:39:16.181Z,65.70
2018-11-26T09:41:48.792Z,66.50
2018-11-26T09:44:21.426Z,70.70
2018-11-26T09:46:54.031Z,67.95
2018-11-26T09:49:26.707Z,72.40
2018-11-26T09:51:59.361Z,78.75
2018-11-26T09:54:31.967Z,70.87
2018-11-26T09:57:05.774Z,65.62
2018-11-26T09:59:38.339Z,62.98
2018-11-26T10:02:10.923Z,68.22
2018-11-26T10:04:43.502Z,55.95
2018-11-26T10:07:16.176Z,57.40
2018-11-26T10:09:48.749Z,58.38
2018-11-26T10:12:21.347Z,54.40
2018-11-26T10:14:53.933Z,61.05
2018-11-26T10:17:26.498Z,62.50
2018-11-26T10:19:59.149Z,55.30
2018-11-26T10:22:31.728Z,49.73
2018-11-26T10:25:05.982Z,71.97
2018-11-26T10:27:37.911Z,54.35
2018-11-26T10:30:12.434Z,47.03
2018-11-26T10:32:45.720Z,51.30
2018-11-26T10:35:19.129Z,54.98
2018-11-26T10:37:51.702Z,55.78
2018-11-26T10:40:25.551Z,51.25
2018-11-26T10:42:58.530Z,54.48
2018-11-26T10:45:30.977Z,47.65
2018-11-26T10:48:04.112Z,52.40
2018-11-26T10:50:36.740Z,54.50
2018-11-26T10:53:09.518Z,55.28
2018-11-26T10:55:42.174Z,63.98
2018-11-26T10:58:14.813Z,57.08
2018-11-26T11:00:53.162Z,53.95
2018-11-26T11:03:26.153Z,53.90
2018-11-26T11:05:58.764Z,58.63
2018-11-26T11:08:31.505Z,43.28
2018-11-26T11:11:04.115Z,54.25
2018-11-26T11:13:36.788Z,53.52
2018-11-26T11:16:09.410Z,53.08
2018-11-26T11:18:42.013Z,43.68
2018-11-26T11:21:14.647Z,39.80
2018-11-26T11:23:47.285Z,43.35
2018-11-26T11:26:19.920Z,51.58
2018-11-26T11:28:52.524Z,39.80
2018-11-26T11:31:25.121Z,42.67
2018-11-26T11:33:57.670Z,45.50
2018-11-26T11:36:30.360Z,47.27
2018-11-26T11:39:03.697Z,48.08
2018-11-26T11:41:36.624Z,47.83
2018-11-26T11:44:09.287Z,47.13
2018-11-26T11:46:41.917Z,45.45
2018-11-26T11:49:14.676Z,53.28
2018-11-26T11:51:47.330Z,50.92
2018-11-26T11:54:20.095Z,45.45
2018-11-26T11:56:52.885Z,50.70
2018-11-26T11:59:25.562Z,42.90
2018-11-26T12:01:58.302Z,51.20
2018-11-26T12:04:31.034Z,49.70
2018-11-26T12:07:03.671Z,47.80
2018-11-26T12:09:36.313Z,57.67
2018-11-26T12:12:08.931Z,43.92
2018-11-26T12:14:41.731Z,50.63
2018-11-26T12:17:14.382Z,46.37
2018-11-26T12:19:47.053Z,46.53
2018-11-26T12:22:19.724Z,44.83
2018-11-26T12:24:52.387Z,38.83
2018-11-26T12:27:26.065Z,48.95
2018-11-26T12:29:58.697Z,44.42
2018-11-26T12:32:31.334Z,43.98
2018-11-26T12:35:04.419Z,42.17
2018-11-26T12:37:37.076Z,45.20
2018-11-26T12:40:11.993Z,42.50
2018-11-26T12:42:44.610Z,46.30
2018-11-26T12:45:21.727Z,34.48
2018-11-26T12:47:54.340Z,34.58
2018-11-26T12:50:27.030Z,36.95
2018-11-26T12:52:59.778Z,36.68
2018-11-26T12:55:32.598Z,34.25
2018-11-26T12:58:06.972Z,42.67
2018-11-26T13:00:39.649Z,42.67
2018-11-26T13:03:13.875Z,41.02
2018-11-26T13:05:47.478Z,38.05
2018-11-26T13:08:20.118Z,42.83
2018-11-26T13:10:52.722Z,35.92
2018-11-26T13:13:25.383Z,36.20
2018-11-26T13:15:58.034Z,33.08
2018-11-26T13:18:30.733Z,36.35
2018-11-26T13:21:03.354Z,35.80
2018-11-26T13:23:36.053Z,33.78
2018-11-26T13:26:08.694Z,33.95
2018-11-26T13:28:41.369Z,32.98
2018-11-26T13:31:14.037Z,40.83
2018-11-26T13:33:47.561Z,34.53
2018-11-26T13:36:20.241Z,32.20
2018-11-26T13:38:52.939Z,28.38
2018-11-26T13:41:25.647Z,29.15
2018-11-26T13:43:58.287Z,28.50
2018-11-26T13:46:31.725Z,34.88
2018-11-26T13:49:04.978Z,28.20
2018-11-26T13:51:38.891Z,33.55
2018-11-26T13:54:11.583Z,30.68
2018-11-26T13:56:44.326Z,36.90
2018-11-26T13:59:17.034Z,29.72
2018-11-26T14:01:49.773Z,27.25
2018-11-26T14:04:22.485Z,27.55
2018-11-26T14:06:55.294Z,31.27
2018-11-26T14:09:27.997Z,30.05
2018-11-26T14:12:00.700Z,30.10
2018-11-26T14:14:33.418Z,25.75
2018-11-26T14:17:06.190Z,28.70
2018-11-26T14:19:39.025Z,27.62
2018-11-26T14:22:11.652Z,22.10
2018-11-26T14:24:44.361Z,26.97
2018-11-26T14:27:17.049Z,27.35
2018-11-26T14:29:49.774Z,22.27
2018-11-26T14:32:22.382Z,29.95
2018-11-26T14:34:55.075Z,25.08
2018-11-26T14:37:28.617Z,23.20
2018-11-26T14:40:01.211Z,26.80
2018-11-26T14:42:33.868Z,24.67
2018-11-26T14:45:08.912Z,26.62
2018-11-26T14:47:41.811Z,25.97
2018-11-26T14:50:15.607Z,32.30
2018-11-26T14:52:49.119Z,30.23
2018-11-26T14:55:25.062Z,31.93
2018-11-26T14:57:57.854Z,30.80
2018-11-26T15:00:30.502Z,33.42
2018-11-26T15:03:03.342Z,41.02
2018-11-26T15:05:36.015Z,46.60
2018-11-26T15:08:09.343Z,42.62
2018-11-26T15:10:42.055Z,39.83
2018-11-26T15:13:14.670Z,46.53
2018-11-26T15:15:47.374Z,44.05
2018-11-26T15:18:20.056Z,48.42
2018-11-26T15:20:52.701Z,47.35
2018-11-26T15:23:25.331Z,46.05
2018-11-26T15:25:58.671Z,52.48
2018-11-26T15:28:31.279Z,48.65
2018-11-26T15:31:03.892Z,56.10
2018-11-26T15:33:36.606Z,49.50
2018-11-26T15:36:09.295Z,53.28
2018-11-26T15:38:41.927Z,54.93
2018-11-26T15:41:14.577Z,56.18
2018-11-26T15:43:47.322Z,54.42
2018-11-26T15:46:20.786Z,57.05
2018-11-26T15:48:53.463Z,62.08
2018-11-26T15:51:26.122Z,63.08
2018-11-26T15:53:59.474Z,60.05
2018-11-26T15:56:32.219Z,59.03
2018-11-26T15:59:05.004Z,68.10
2018-11-26T16:01:37.659Z,52.95
2018-11-26T16:04:10.378Z,62.08
2018-11-26T16:06:43.158Z,50.50
2018-11-26T16:09:15.867Z,54.35
2018-11-26T16:11:48.611Z,53.80
2018-11-26T16:14:21.220Z,54.18
2018-11-26T16:16:53.855Z,52.48
2018-11-26T16:19:27.176Z,53.23
2018-11-26T16:21:59.858Z,58.50
2018-11-26T16:24:32.581Z,58.02
2018-11-26T16:27:05.721Z,47.33
2018-11-26T16:29:38.482Z,52.85
2018-11-26T16:32:11.247Z,50.25
2018-11-26T16:34:43.947Z,51.35
2018-11-26T16:37:16.762Z,58.08
2018-11-26T16:39:49.478Z,59.60
2018-11-26T16:42:22.111Z,53.98
2018-11-26T16:44:54.799Z,58.38
2018-11-26T16:47:27.532Z,61.48
2018-11-26T16:50:00.213Z,56.60
2018-11-26T16:52:32.857Z,57.03
2018-11-26T16:55:10.668Z,55.50
2018-11-26T16:57:43.420Z,53.10
2018-11-26T17:00:19.024Z,60.12
2018-11-26T17:02:53.475Z,57.10
2018-11-26T17:05:35.715Z,51.02
2018-11-26T17:08:10.125Z,52.93
2018-11-26T17:10:43.219Z,56.30
2018-11-26T17:13:15.958Z,52.40
2018-11-26T17:15:48.644Z,59.88
2018-11-26T17:18:21.351Z,58.28
2018-11-26T17:20:53.970Z,63.52
2018-11-26T17:23:27.151Z,62.03
2018-11-26T17:25:59.892Z,61.37
2018-11-26T17:28:33.348Z,58.20
2018-11-26T17:31:06.602Z,58.65
2018-11-26T17:33:39.341Z,53.33
2018-11-26T17:36:12.086Z,59.98
2018-11-26T17:38:44.827Z,55.45
2018-11-26T17:41:18.538Z,50.90
2018-11-26T17:43:51.270Z,58.10
2018-11-26T17:46:23.939Z,64.40
2018-11-26T17:48:56.703Z,54.63
2018-11-26T17:51:29.268Z,57.58
2018-11-26T17:54:01.938Z,54.27
2018-11-26T17:56:35.690Z,54.60
2018-11-26T17:59:08.489Z,53.78
2018-11-26T18:01:43.666Z,49.98
2018-11-26T18:04:16.513Z,50.45
2018-11-26T18:06:49.956Z,49.27
2018-11-26T18:09:22.964Z,57.67
2018-11-26T18:11:56.336Z,48.98
2018-11-26T18:14:31.275Z,48.85
2018-11-26T18:17:04.152Z,46.25
2018-11-26T18:19:36.976Z,40.45
2018-11-26T18:22:10.416Z,41.50
2018-11-26T18:24:43.092Z,43.45
2018-11-26T18:27:15.824Z,42.08
2018-11-26T18:29:48.570Z,42.55
2018-11-26T18:32:21.657Z,42.30
2018-11-26T18:34:54.465Z,36.88
2018-11-26T18:37:27.341Z,44.33
2018-11-26T18:40:00.037Z,41.48
2018-11-26T18:42:32.796Z,49.10
2018-11-26T18:45:07.592Z,44.67
2018-11-26T18:47:40.341Z,54.38
2018-11-26T18:50:15.871Z,53.28
2018-11-26T18:52:49.453Z,50.23
2018-11-26T18:55:22.199Z,47.83
2018-11-26T18:57:55.019Z,52.27
2018-11-26T19:00:29.626Z,53.05
2018-11-26T19:03:02.300Z,46.28
2018-11-26T19:05:35.190Z,47.10
2018-11-26T19:08:08.006Z,51.25
2018-11-26T19:10:40.806Z,51.30
2018-11-26T19:13:20.115Z,43.83
2018-11-26T19:15:59.441Z,51.42
2018-11-26T19:18:33.061Z,52.25
2018-11-26T19:21:06.316Z,45.98
2018-11-26T19:23:39.084Z,49.53
2018-11-26T19:26:11.775Z,46.60
2018-11-26T19:28:44.416Z,46.65
2018-11-26T19:31:17.117Z,47.20
2018-11-26T19:33:49.789Z,44.20
2018-11-26T19:36:22.483Z,51.80
2018-11-26T19:38:55.218Z,43.33
2018-11-26T19:41:27.883Z,46.20
2018-11-26T19:44:00.624Z,48.25
2018-11-26T19:46:33.262Z,43.13
2018-11-26T19:49:06.002Z,43.13
2018-11-26T19:51:38.772Z,48.02
2018-11-26T19:54:12.102Z,46.63
2018-11-26T19:56:44.725Z,46.98
2018-11-26T19:59:17.521Z,53.73
2018-11-26T20:01:50.246Z,46.40
2018-11-26T20:04:30.543Z,46.25
2018-11-26T20:07:03.258Z,53.28
2018-11-26T20:09:35.995Z,52.00
2018-11-26T20:12:08.659Z,53.00
2018-11-26T20:14:41.454Z,46.20
2018-11-26T20:17:14.053Z,44.27
2018-11-26T20:19:46.755Z,48.45
2018-11-26T20:22:19.857Z,50.73
2018-11-26T20:24:52.284Z,53.95
2018-11-26T20:27:25.011Z,55.98
2018-11-26T20:29:57.754Z,57.23
2018-11-26T20:32:30.484Z,47.13
2018-11-26T20:36:33.830Z,49.13
2018-11-26T20:39:08.720Z,52.67
2018-11-26T20:41:41.405Z,49.40
2018-11-26T20:44:14.098Z,56.60
2018-11-26T20:46:49.125Z,54.53
2018-11-26T20:49:19.664Z,46.23
2018-11-26T20:51:52.296Z,46.15
2018-11-26T20:54:25.049Z,49.67
2018-11-26T20:56:57.773Z,49.80
2018-11-26T20:59:30.499Z,53.30
2018-11-26T21:02:03.260Z,51.28
2018-11-26T21:04:36.060Z,51.50
2018-11-26T21:07:08.730Z,54.00
2018-11-26T21:09:41.429Z,47.83
2018-11-26T21:12:14.045Z,54.70
2018-11-26T21:14:46.707Z,51.00
2018-11-26T21:17:19.356Z,46.90
2018-11-26T21:19:52.101Z,49.45
2018-11-26T21:22:24.725Z,50.15
2018-11-26T21:24:57.505Z,46.18
2018-11-26T21:27:30.256Z,51.37
2018-11-26T21:30:03.045Z,47.78
2018-11-26T21:32:35.856Z,56.20
2018-11-26T21:35:10.622Z,45.78
2018-11-26T21:37:44.626Z,47.73
2018-11-26T21:40:20.673Z,49.13
2018-11-26T21:42:53.378Z,45.60
2018-11-26T21:45:30.178Z,47.23
2018-11-26T21:48:02.932Z,45.85
2018-11-26T21:50:35.607Z,50.33
2018-11-26T21:53:08.339Z,49.98
2018-11-26T21:55:40.984Z,46.20
2018-11-26T21:58:13.630Z,48.68
2018-11-26T22:00:47.250Z,45.05
2018-11-26T22:03:19.928Z,41.45
2018-11-26T22:05:52.674Z,51.88
2018-11-26T22:08:25.253Z,48.58
2018-11-26T22:10:57.935Z,46.73
